createdAt,value
2017-08-24T00:01:45.148Z,6.80
2017-08-24T00:04:12.747Z,6.90
2017-08-24T00:06:40.530Z,7.30
2017-08-24T00:09:08.087Z,7.33
2017-08-24T00:11:35.590Z,8.17
2017-08-24T00:14:03.479Z,9.00
2017-08-24T00:16:31.083Z,10.97
2017-08-24T00:18:58.697Z,12.40
2017-08-24T00:21:27.009Z,15.17
2017-08-24T00:23:54.774Z,17.73
2017-08-24T00:26:23.107Z,18.50
2017-08-24T00:28:50.684Z,20.97
2017-08-24T00:31:18.595Z,20.77
2017-08-24T00:33:46.094Z,24.70
2017-08-24T00:36:13.653Z,24.07
2017-08-24T00:38:41.207Z,23.90
2017-08-24T00:41:08.717Z,24.13
2017-08-24T00:43:36.279Z,26.07
2017-08-24T00:46:03.759Z,24.10
2017-08-24T00:48:31.544Z,23.40
2017-08-24T00:50:59.007Z,22.50
2017-08-24T00:53:27.330Z,22.10
2017-08-24T00:55:54.817Z,23.30
2017-08-24T00:58:22.418Z,23.73
2017-08-24T01:00:50.172Z,23.87
2017-08-24T01:03:17.787Z,24.63
2017-08-24T01:05:45.267Z,25.50
2017-08-24T01:08:12.749Z,24.57
2017-08-24T01:10:40.205Z,25.83
2017-08-24T01:13:07.733Z,27.00
2017-08-24T01:15:35.198Z,26.97
2017-08-24T01:18:02.855Z,25.50
2017-08-24T01:20:30.432Z,25.57
2017-08-24T01:22:57.918Z,25.83
2017-08-24T01:25:26.243Z,24.13
2017-08-24T01:27:53.840Z,23.90
2017-08-24T01:30:22.478Z,23.10
2017-08-24T01:32:50.108Z,23.57
2017-08-24T01:35:17.722Z,22.70
2017-08-24T01:37:46.054Z,22.10
2017-08-24T01:40:13.611Z,21.50
2017-08-24T01:42:41.143Z,20.30
2017-08-24T01:45:09.627Z,19.90
2017-08-24T01:47:37.412Z,20.00
2017-08-24T01:50:05.276Z,19.20
2017-08-24T01:52:33.526Z,19.17
2017-08-24T01:55:01.140Z,18.00
2017-08-24T01:57:28.743Z,17.17
2017-08-24T01:59:56.411Z,18.20
2017-08-24T02:02:24.003Z,17.50
2017-08-24T02:04:51.514Z,18.40
2017-08-24T02:07:19.045Z,18.70
2017-08-24T02:09:46.568Z,18.10
2017-08-24T02:12:14.981Z,18.13
2017-08-24T02:14:42.574Z,17.93
2017-08-24T02:17:10.926Z,18.47
2017-08-24T02:19:38.453Z,17.90
2017-08-24T02:22:05.964Z,17.20
2017-08-24T02:24:33.559Z,19.00
2017-08-24T02:27:01.120Z,21.07
2017-08-24T02:29:28.630Z,21.97
2017-08-24T02:31:56.176Z,22.13
2017-08-24T02:34:23.713Z,22.63
2017-08-24T02:36:51.298Z,22.40
2017-08-24T02:39:19.354Z,22.63
2017-08-24T02:41:46.862Z,21.70
2017-08-24T02:44:14.611Z,22.03
2017-08-24T02:46:42.402Z,21.27
2017-08-24T02:49:09.951Z,24.00
2017-08-24T02:51:37.660Z,23.67
2017-08-24T02:54:05.167Z,25.37
2017-08-24T02:56:32.886Z,24.87
2017-08-24T02:59:01.217Z,23.77
2017-08-24T03:01:28.846Z,25.43
2017-08-24T03:03:56.451Z,24.70
2017-08-24T03:06:24.010Z,24.17
2017-08-24T03:08:51.574Z,22.83
2017-08-24T03:11:19.223Z,23.50
2017-08-24T03:13:46.675Z,22.40
2017-08-24T03:16:15.203Z,21.80
2017-08-24T03:18:42.931Z,20.97
2017-08-24T03:21:10.509Z,21.30
2017-08-24T03:23:38.820Z,23.17
2017-08-24T03:26:06.360Z,20.33
2017-08-24T03:28:34.747Z,20.50
2017-08-24T03:31:02.321Z,21.80
2017-08-24T03:33:29.804Z,21.33
2017-08-24T03:35:57.418Z,21.90
2017-08-24T03:38:25.701Z,20.83
2017-08-24T03:40:53.360Z,21.53
2017-08-24T03:43:21.273Z,20.77
2017-08-24T03:45:48.893Z,20.43
2017-08-24T03:48:16.523Z,19.57
2017-08-24T03:50:44.793Z,18.50
2017-08-24T03:53:12.386Z,18.80
2017-08-24T03:55:40.734Z,18.77
2017-08-24T03:58:08.183Z,17.87
2017-08-24T04:00:35.653Z,16.37
2017-08-24T04:03:03.215Z,16.03
2017-08-24T04:05:30.902Z,15.40
2017-08-24T04:07:59.115Z,15.90
2017-08-24T04:10:26.698Z,14.83
2017-08-24T04:12:54.332Z,13.90
2017-08-24T04:15:21.923Z,14.30
2017-08-24T04:17:49.463Z,14.20
2017-08-24T04:20:17.032Z,14.13
2017-08-24T04:22:45.282Z,14.43
2017-08-24T04:25:12.868Z,14.13
2017-08-24T04:27:40.438Z,13.63
2017-08-24T04:30:07.928Z,12.93
2017-08-24T04:32:36.250Z,13.13
2017-08-24T04:35:03.986Z,12.63
2017-08-24T04:37:31.544Z,12.80
2017-08-24T04:39:59.095Z,12.40
2017-08-24T04:42:27.334Z,11.50
2017-08-24T04:44:54.890Z,12.30
2017-08-24T04:47:22.456Z,13.10
2017-08-24T04:49:49.912Z,13.40
2017-08-24T04:52:17.415Z,12.70
2017-08-24T04:54:44.974Z,12.63
2017-08-24T04:57:13.355Z,12.60
2017-08-24T04:59:40.842Z,13.83
2017-08-24T05:02:08.354Z,15.40
2017-08-24T05:04:35.987Z,13.43
2017-08-24T05:07:04.352Z,12.40
2017-08-24T05:09:31.923Z,13.53
2017-08-24T05:11:59.415Z,12.83
2017-08-24T05:14:26.871Z,13.10
2017-08-24T05:16:55.150Z,13.30
2017-08-24T05:19:23.364Z,13.13
2017-08-24T05:21:50.845Z,12.50
2017-08-24T05:24:18.513Z,13.67
2017-08-24T05:26:46.011Z,13.97
2017-08-24T05:29:13.510Z,13.40
2017-08-24T05:31:41.275Z,13.60
2017-08-24T05:34:08.785Z,14.70
2017-08-24T05:36:37.043Z,21.03
2017-08-24T05:39:05.390Z,17.47
2017-08-24T05:41:32.901Z,14.27
2017-08-24T05:44:01.221Z,13.70
2017-08-24T05:46:28.814Z,14.30
2017-08-24T05:48:56.355Z,15.60
2017-08-24T05:51:23.971Z,14.63
2017-08-24T05:53:51.615Z,14.57
2017-08-24T05:56:19.192Z,15.10
2017-08-24T05:58:46.652Z,15.63
2017-08-24T06:01:14.257Z,15.03
2017-08-24T06:03:41.762Z,14.93
2017-08-24T06:06:09.348Z,14.23
2017-08-24T06:08:37.090Z,15.33
2017-08-24T06:11:05.455Z,15.53
2017-08-24T06:13:33.814Z,16.10
2017-08-24T06:16:01.365Z,14.80
2017-08-24T06:18:28.995Z,15.60
2017-08-24T06:20:56.516Z,15.90
2017-08-24T06:23:24.049Z,17.00
2017-08-24T06:25:51.532Z,16.73
2017-08-24T06:28:19.230Z,16.90
2017-08-24T06:30:46.792Z,16.40
2017-08-24T06:33:14.273Z,17.80
2017-08-24T06:35:41.779Z,17.87
2017-08-24T06:38:09.283Z,17.50
2017-08-24T06:40:36.788Z,16.97
2017-08-24T06:43:04.253Z,17.63
2017-08-24T06:45:32.545Z,16.70
2017-08-24T06:48:00.005Z,15.93
2017-08-24T06:50:27.503Z,16.43
2017-08-24T06:52:55.012Z,15.80
2017-08-24T06:55:22.517Z,17.20
2017-08-24T06:57:50.086Z,16.67
2017-08-24T07:00:17.970Z,17.10
2017-08-24T07:02:46.037Z,18.63
2017-08-24T07:05:13.514Z,16.80
2017-08-24T07:07:40.994Z,15.20
2017-08-24T07:10:08.435Z,17.07
2017-08-24T07:12:36.705Z,18.30
2017-08-24T07:15:04.283Z,17.80
2017-08-24T07:17:31.846Z,18.00
2017-08-24T07:20:00.174Z,18.00
2017-08-24T07:22:27.676Z,18.87
2017-08-24T07:24:55.176Z,19.57
2017-08-24T07:27:22.782Z,19.93
2017-08-24T07:29:50.401Z,20.13
2017-08-24T07:32:17.869Z,19.23
2017-08-24T07:34:45.355Z,20.30
2017-08-24T07:37:12.936Z,20.33
2017-08-24T07:39:40.445Z,20.80
2017-08-24T07:42:07.982Z,19.77
2017-08-24T07:44:35.500Z,19.40
2017-08-24T07:47:02.972Z,20.50
2017-08-24T07:49:30.471Z,19.37
2017-08-24T07:51:57.988Z,21.10
2017-08-24T07:54:25.597Z,20.10
2017-08-24T07:56:53.201Z,19.40
2017-08-24T07:59:21.105Z,20.80
2017-08-24T08:01:48.582Z,19.80
2017-08-24T08:04:16.227Z,19.37
2017-08-24T08:06:44.039Z,19.40
2017-08-24T08:09:11.501Z,20.10
2017-08-24T08:11:38.958Z,21.37
2017-08-24T08:14:06.541Z,20.80
2017-08-24T08:16:34.053Z,20.93
2017-08-24T08:19:01.527Z,20.33
2017-08-24T08:21:29.084Z,20.57
2017-08-24T08:23:56.710Z,21.60
2017-08-24T08:26:24.372Z,21.00
2017-08-24T08:28:51.884Z,21.70
2017-08-24T08:31:20.277Z,19.70
2017-08-24T08:33:48.034Z,21.33
2017-08-24T08:36:16.322Z,20.27
2017-08-24T08:38:43.812Z,20.90
2017-08-24T08:41:11.324Z,21.03
2017-08-24T08:43:39.614Z,20.07
2017-08-24T08:46:07.123Z,21.50
2017-08-24T08:48:34.616Z,20.10
2017-08-24T08:51:02.127Z,19.83
2017-08-24T08:53:29.802Z,18.10
2017-08-24T08:55:57.337Z,19.17
2017-08-24T08:58:24.994Z,18.27
2017-08-24T09:00:53.440Z,18.20
2017-08-24T09:03:20.995Z,18.43
2017-08-24T09:05:49.905Z,17.50
2017-08-24T09:08:17.348Z,16.87
2017-08-24T09:10:44.842Z,18.17
2017-08-24T09:13:12.459Z,18.83
2017-08-24T09:15:40.025Z,17.87
2017-08-24T09:18:07.650Z,19.30
2017-08-24T09:20:35.199Z,19.43
2017-08-24T09:23:02.980Z,19.80
2017-08-24T09:25:30.637Z,18.87
2017-08-24T09:27:58.299Z,19.43
2017-08-24T09:30:25.839Z,20.80
2017-08-24T09:32:53.308Z,20.10
2017-08-24T09:35:21.350Z,19.67
2017-08-24T09:37:49.198Z,19.07
2017-08-24T09:40:17.244Z,18.27
2017-08-24T09:42:44.766Z,18.53
2017-08-24T09:45:12.391Z,18.40
2017-08-24T09:47:40.817Z,20.13
2017-08-24T09:50:08.681Z,20.00
2017-08-24T09:52:36.159Z,19.53
2017-08-24T09:55:03.633Z,19.70
2017-08-24T09:57:31.721Z,19.47
2017-08-24T09:59:59.195Z,19.80
2017-08-24T10:02:26.755Z,20.97
2017-08-24T10:04:54.485Z,19.97
2017-08-24T10:07:22.062Z,18.97
2017-08-24T10:09:49.618Z,17.40
2017-08-24T10:12:18.043Z,16.80
2017-08-24T10:14:45.551Z,16.67
2017-08-24T10:17:13.071Z,18.20
2017-08-24T10:19:40.627Z,19.80
2017-08-24T10:22:08.238Z,20.50
2017-08-24T10:24:35.858Z,22.07
2017-08-24T10:27:03.353Z,21.17
2017-08-24T10:29:30.928Z,20.57
2017-08-24T10:31:58.483Z,19.20
2017-08-24T10:34:26.093Z,18.43
2017-08-24T10:36:53.602Z,17.70
2017-08-24T10:39:22.227Z,17.13
2017-08-24T10:41:50.681Z,18.80
2017-08-24T10:44:18.241Z,17.30
2017-08-24T10:46:45.746Z,18.77
2017-08-24T10:49:13.290Z,17.97
2017-08-24T10:51:40.792Z,16.70
2017-08-24T10:54:08.276Z,18.67
2017-08-24T10:56:36.543Z,18.47
2017-08-24T10:59:04.030Z,18.03
2017-08-24T11:01:31.749Z,20.87
2017-08-24T11:03:59.372Z,17.90
2017-08-24T11:06:27.032Z,20.00
2017-08-24T11:08:54.645Z,20.40
2017-08-24T11:11:22.136Z,17.60
2017-08-24T11:13:49.882Z,16.00
2017-08-24T11:16:17.425Z,15.83
2017-08-24T11:18:45.045Z,17.67
2017-08-24T11:21:12.591Z,17.07
2017-08-24T11:23:40.159Z,17.70
2017-08-24T11:26:07.984Z,17.57
2017-08-24T11:28:36.259Z,18.70
2017-08-24T11:31:03.742Z,18.97
2017-08-24T11:33:32.161Z,17.30
2017-08-24T11:35:59.762Z,18.40
2017-08-24T11:38:27.549Z,17.07
2017-08-24T11:40:55.023Z,18.77
2017-08-24T11:43:22.708Z,16.60
2017-08-24T11:45:50.271Z,17.40
2017-08-24T11:48:17.825Z,18.17
2017-08-24T11:50:45.306Z,18.70
2017-08-24T11:53:12.950Z,18.30
2017-08-24T11:55:40.649Z,17.50
2017-08-24T11:58:08.239Z,18.30
2017-08-24T12:00:35.767Z,18.37
2017-08-24T12:03:03.352Z,19.90
2017-08-24T12:05:31.253Z,18.23
2017-08-24T12:07:58.900Z,20.60
2017-08-24T12:10:26.580Z,18.83
2017-08-24T12:12:54.162Z,17.50
2017-08-24T12:15:21.781Z,16.00
2017-08-24T12:17:49.297Z,16.93
2017-08-24T12:20:17.590Z,16.53
2017-08-24T12:22:45.783Z,17.60
2017-08-24T12:25:13.295Z,16.63
2017-08-24T12:27:40.849Z,16.90
2017-08-24T12:30:08.307Z,17.27
2017-08-24T12:32:35.866Z,19.10
2017-08-24T12:35:03.329Z,18.33
2017-08-24T12:37:30.982Z,17.20
2017-08-24T12:39:58.476Z,16.73
2017-08-24T12:42:26.190Z,17.40
2017-08-24T12:44:53.752Z,16.40
2017-08-24T12:47:21.645Z,19.00
2017-08-24T12:49:49.208Z,18.20
2017-08-24T12:52:16.944Z,18.70
2017-08-24T12:54:44.530Z,17.50
2017-08-24T12:57:11.979Z,16.47
2017-08-24T12:59:39.547Z,15.77
2017-08-24T13:02:07.003Z,14.87
2017-08-24T13:04:34.594Z,14.97
2017-08-24T13:07:02.098Z,14.30
2017-08-24T13:09:29.586Z,15.27
2017-08-24T13:11:57.081Z,13.30
2017-08-24T13:14:24.756Z,14.33
2017-08-24T13:16:52.391Z,14.50
2017-08-24T13:19:20.176Z,16.20
2017-08-24T13:21:47.740Z,13.83
2017-08-24T13:24:15.273Z,13.40
2017-08-24T13:26:42.915Z,13.30
2017-08-24T13:29:11.138Z,12.60
2017-08-24T13:31:38.631Z,12.77
2017-08-24T13:34:06.099Z,13.10
2017-08-24T13:36:33.921Z,12.17
2017-08-24T13:39:01.576Z,12.77
2017-08-24T13:41:29.114Z,12.97
2017-08-24T13:43:57.370Z,13.20
2017-08-24T13:46:24.931Z,12.80
2017-08-24T13:48:53.310Z,12.93
2017-08-24T13:51:20.863Z,14.00
2017-08-24T13:53:48.431Z,14.17
2017-08-24T13:56:15.990Z,13.40
2017-08-24T13:58:43.766Z,12.50
2017-08-24T14:01:11.385Z,11.37
2017-08-24T14:03:38.866Z,12.17
2017-08-24T14:06:06.885Z,10.27
2017-08-24T14:08:34.376Z,10.83
2017-08-24T14:11:02.236Z,10.80
2017-08-24T14:13:29.846Z,10.27
2017-08-24T21:49:39.196Z,8.93
